sensor_id;sensor_type;location;lat;lon;timestamp;temperature;humidity
15879;DHT22;61999;51.514;14.614;2023-02-14T00:01:31;2.20;70.10
15879;DHT22;61999;51.514;14.614;2023-02-14T00:04:01;2.20;70.20
15879;DHT22;61999;51.514;14.614;2023-02-14T00:06:33;2.20;70.20
15879;DHT22;61999;51.514;14.614;2023-02-14T00:09:04;2.20;70.20
15879;DHT22;61999;51.514;14.614;2023-02-14T00:11:33;2.20;70.20
15879;DHT22;61999;51.514;14.614;2023-02-14T00:14:01;2.20;70.10
15879;DHT22;61999;51.514;14.614;2023-02-14T00:16:47;2.20;70.20
15879;DHT22;61999;51.514;14.614;2023-02-14T00:19:18;2.20;70.20
15879;DHT22;61999;51.514;14.614;2023-02-14T00:21:50;2.20;70.20
15879;DHT22;61999;51.514;14.614;2023-02-14T00:24:20;2.20;70.20
15879;DHT22;61999;51.514;14.614;2023-02-14T00:26:51;2.20;70.30
15879;DHT22;61999;51.514;14.614;2023-02-14T00:29:22;2.20;70.30
15879;DHT22;61999;51.514;14.614;2023-02-14T00:31:53;2.30;70.40
15879;DHT22;61999;51.514;14.614;2023-02-14T00:34:23;2.30;70.20
15879;DHT22;61999;51.514;14.614;2023-02-14T00:36:52;2.30;70.10
15879;DHT22;61999;51.514;14.614;2023-02-14T00:39:20;2.30;70.10
15879;DHT22;61999;51.514;14.614;2023-02-14T00:41:48;2.30;70.10
15879;DHT22;61999;51.514;14.614;2023-02-14T00:44:16;2.30;70.10
15879;DHT22;61999;51.514;14.614;2023-02-14T00:46:44;2.20;70.00
15879;DHT22;61999;51.514;14.614;2023-02-14T00:49:12;2.30;70.10
15879;DHT22;61999;51.514;14.614;2023-02-14T00:51:41;2.30;70.10
15879;DHT22;61999;51.514;14.614;2023-02-14T00:54:09;2.30;70.10
15879;DHT22;61999;51.514;14.614;2023-02-14T00:56:37;2.30;70.10
15879;DHT22;61999;51.514;14.614;2023-02-14T00:59:05;2.30;70.10
15879;DHT22;61999;51.514;14.614;2023-02-14T01:01:33;2.30;70.10
15879;DHT22;61999;51.514;14.614;2023-02-14T01:04:02;2.30;70.10
15879;DHT22;61999;51.514;14.614;2023-02-14T01:06:30;2.30;70.00
15879;DHT22;61999;51.514;14.614;2023-02-14T01:08:59;2.30;69.80
15879;DHT22;61999;51.514;14.614;2023-02-14T01:11:28;2.30;69.60
15879;DHT22;61999;51.514;14.614;2023-02-14T01:13:58;2.30;69.80
15879;DHT22;61999;51.514;14.614;2023-02-14T01:16:29;2.30;69.80
15879;DHT22;61999;51.514;14.614;2023-02-14T01:18:58;2.20;69.70
15879;DHT22;61999;51.514;14.614;2023-02-14T01:21:28;2.20;69.90
15879;DHT22;61999;51.514;14.614;2023-02-14T01:24:00;2.20;69.90
15879;DHT22;61999;51.514;14.614;2023-02-14T01:26:30;2.30;70.00
15879;DHT22;61999;51.514;14.614;2023-02-14T01:29:01;2.20;69.70
15879;DHT22;61999;51.514;14.614;2023-02-14T01:31:31;2.20;69.70
15879;DHT22;61999;51.514;14.614;2023-02-14T01:34:03;2.20;69.80
15879;DHT22;61999;51.514;14.614;2023-02-14T01:36:34;2.20;69.90
15879;DHT22;61999;51.514;14.614;2023-02-14T01:39:06;2.20;69.80
15879;DHT22;61999;51.514;14.614;2023-02-14T01:41:38;2.20;69.80
15879;DHT22;61999;51.514;14.614;2023-02-14T01:47:32;2.20;69.90
15879;DHT22;61999;51.514;14.614;2023-02-14T01:50:07;2.20;69.80
15879;DHT22;61999;51.514;14.614;2023-02-14T01:52:42;2.20;69.90
15879;DHT22;61999;51.514;14.614;2023-02-14T01:55:18;2.20;69.90
15879;DHT22;61999;51.514;14.614;2023-02-14T01:57:52;2.20;69.80
15879;DHT22;61999;51.514;14.614;2023-02-14T02:00:25;2.20;69.70
15879;DHT22;61999;51.514;14.614;2023-02-14T02:03:12;2.20;69.60
15879;DHT22;61999;51.514;14.614;2023-02-14T02:05:45;2.20;69.70
15879;DHT22;61999;51.514;14.614;2023-02-14T02:08:15;2.10;69.60
15879;DHT22;61999;51.514;14.614;2023-02-14T02:10:45;2.20;69.70
15879;DHT22;61999;51.514;14.614;2023-02-14T02:13:16;2.20;69.60
15879;DHT22;61999;51.514;14.614;2023-02-14T02:15:53;2.20;69.40
15879;DHT22;61999;51.514;14.614;2023-02-14T02:18:37;2.20;69.30
15879;DHT22;61999;51.514;14.614;2023-02-14T02:24:51;2.10;69.40
15879;DHT22;61999;51.514;14.614;2023-02-14T02:28:02;2.10;69.40
15879;DHT22;61999;51.514;14.614;2023-02-14T02:31:10;2.10;69.50
15879;DHT22;61999;51.514;14.614;2023-02-14T02:37:30;2.00;69.40
15879;DHT22;61999;51.514;14.614;2023-02-14T02:40:21;2.00;69.40
15879;DHT22;61999;51.514;14.614;2023-02-14T02:43:15;2.00;69.40
15879;DHT22;61999;51.514;14.614;2023-02-14T02:46:00;2.00;69.40
15879;DHT22;61999;51.514;14.614;2023-02-14T02:48:55;2.00;69.50
15879;DHT22;61999;51.514;14.614;2023-02-14T02:51:33;2.00;69.60
15879;DHT22;61999;51.514;14.614;2023-02-14T02:54:32;2.00;69.50
15879;DHT22;61999;51.514;14.614;2023-02-14T02:57:06;2.00;69.60
15879;DHT22;61999;51.514;14.614;2023-02-14T02:59:46;2.00;69.70
15879;DHT22;61999;51.514;14.614;2023-02-14T03:02:19;2.00;69.40
15879;DHT22;61999;51.514;14.614;2023-02-14T03:04:54;2.00;69.40
15879;DHT22;61999;51.514;14.614;2023-02-14T03:07:31;1.90;69.50
15879;DHT22;61999;51.514;14.614;2023-02-14T03:10:07;1.90;70.20
15879;DHT22;61999;51.514;14.614;2023-02-14T03:15:52;1.90;69.20
15879;DHT22;61999;51.514;14.614;2023-02-14T03:18:42;1.90;69.40
15879;DHT22;61999;51.514;14.614;2023-02-14T03:21:24;1.90;69.50
15879;DHT22;61999;51.514;14.614;2023-02-14T03:24:02;1.90;69.40
15879;DHT22;61999;51.514;14.614;2023-02-14T03:26:46;1.90;69.50
15879;DHT22;61999;51.514;14.614;2023-02-14T03:29:24;1.90;69.50
15879;DHT22;61999;51.514;14.614;2023-02-14T03:32:05;1.90;69.50
15879;DHT22;61999;51.514;14.614;2023-02-14T03:34:47;1.90;69.10
15879;DHT22;61999;51.514;14.614;2023-02-14T03:37:23;1.90;69.30
15879;DHT22;61999;51.514;14.614;2023-02-14T03:40:03;1.90;69.30
15879;DHT22;61999;51.514;14.614;2023-02-14T03:42:41;1.90;69.40
15879;DHT22;61999;51.514;14.614;2023-02-14T03:45:19;1.90;69.50
15879;DHT22;61999;51.514;14.614;2023-02-14T03:48:02;1.90;69.70
15879;DHT22;61999;51.514;14.614;2023-02-14T03:50:37;1.90;69.10
15879;DHT22;61999;51.514;14.614;2023-02-14T03:53:10;1.90;69.20
15879;DHT22;61999;51.514;14.614;2023-02-14T03:55:46;1.90;69.30
15879;DHT22;61999;51.514;14.614;2023-02-14T03:58:26;1.90;69.30
15879;DHT22;61999;51.514;14.614;2023-02-14T04:01:02;1.80;69.30
15879;DHT22;61999;51.514;14.614;2023-02-14T04:03:39;1.80;69.20
15879;DHT22;61999;51.514;14.614;2023-02-14T04:06:11;1.80;68.30
15879;DHT22;61999;51.514;14.614;2023-02-14T04:08:39;1.80;68.90
15879;DHT22;61999;51.514;14.614;2023-02-14T04:11:07;1.80;68.90
15879;DHT22;61999;51.514;14.614;2023-02-14T04:13:37;1.80;68.90
15879;DHT22;61999;51.514;14.614;2023-02-14T04:16:07;1.80;69.00
15879;DHT22;61999;51.514;14.614;2023-02-14T04:18:35;1.80;69.10
15879;DHT22;61999;51.514;14.614;2023-02-14T04:21:21;1.80;69.00
15879;DHT22;61999;51.514;14.614;2023-02-14T04:23:51;1.80;69.20
15879;DHT22;61999;51.514;14.614;2023-02-14T04:26:19;1.70;69.10
15879;DHT22;61999;51.514;14.614;2023-02-14T04:28:48;1.80;70.00
15879;DHT22;61999;51.514;14.614;2023-02-14T04:31:16;1.80;69.20
15879;DHT22;61999;51.514;14.614;2023-02-14T04:33:45;1.80;69.10
15879;DHT22;61999;51.514;14.614;2023-02-14T04:36:16;1.80;69.00
15879;DHT22;61999;51.514;14.614;2023-02-14T04:38:46;1.80;69.00
15879;DHT22;61999;51.514;14.614;2023-02-14T04:41:14;1.80;68.90
15879;DHT22;61999;51.514;14.614;2023-02-14T04:43:42;1.80;68.90
15879;DHT22;61999;51.514;14.614;2023-02-14T04:46:12;1.80;68.90
15879;DHT22;61999;51.514;14.614;2023-02-14T04:48:40;1.80;68.90
15879;DHT22;61999;51.514;14.614;2023-02-14T04:51:08;1.80;68.80
15879;DHT22;61999;51.514;14.614;2023-02-14T04:53:36;1.90;68.40
15879;DHT22;61999;51.514;14.614;2023-02-14T04:56:06;1.90;68.10
15879;DHT22;61999;51.514;14.614;2023-02-14T04:58:35;1.80;68.00
15879;DHT22;61999;51.514;14.614;2023-02-14T05:01:03;1.80;68.10
15879;DHT22;61999;51.514;14.614;2023-02-14T05:03:33;1.80;68.30
15879;DHT22;61999;51.514;14.614;2023-02-14T05:06:01;1.80;68.20
15879;DHT22;61999;51.514;14.614;2023-02-14T05:08:29;1.80;68.20
15879;DHT22;61999;51.514;14.614;2023-02-14T05:10:57;1.80;68.20
15879;DHT22;61999;51.514;14.614;2023-02-14T05:13:25;1.70;68.00
15879;DHT22;61999;51.514;14.614;2023-02-14T05:15:54;1.70;68.20
15879;DHT22;61999;51.514;14.614;2023-02-14T05:18:22;1.70;68.30
15879;DHT22;61999;51.514;14.614;2023-02-14T05:20:53;1.70;68.40
15879;DHT22;61999;51.514;14.614;2023-02-14T05:23:21;1.70;68.40
15879;DHT22;61999;51.514;14.614;2023-02-14T05:25:50;1.60;68.10
15879;DHT22;61999;51.514;14.614;2023-02-14T05:28:19;1.60;68.30
15879;DHT22;61999;51.514;14.614;2023-02-14T05:30:49;1.60;68.10
15879;DHT22;61999;51.514;14.614;2023-02-14T05:33:18;1.70;68.40
15879;DHT22;61999;51.514;14.614;2023-02-14T05:35:46;1.80;68.10
15879;DHT22;61999;51.514;14.614;2023-02-14T05:38:16;1.80;67.90
15879;DHT22;61999;51.514;14.614;2023-02-14T05:40:45;1.80;67.70
15879;DHT22;61999;51.514;14.614;2023-02-14T05:43:13;1.70;67.40
15879;DHT22;61999;51.514;14.614;2023-02-14T05:45:41;1.70;67.60
15879;DHT22;61999;51.514;14.614;2023-02-14T05:48:09;1.60;67.80
15879;DHT22;61999;51.514;14.614;2023-02-14T05:50:37;1.60;67.80
15879;DHT22;61999;51.514;14.614;2023-02-14T05:53:06;1.60;67.80
15879;DHT22;61999;51.514;14.614;2023-02-14T05:55:35;1.50;67.80
15879;DHT22;61999;51.514;14.614;2023-02-14T05:58:03;1.50;68.00
15879;DHT22;61999;51.514;14.614;2023-02-14T06:00:32;1.50;68.20
15879;DHT22;61999;51.514;14.614;2023-02-14T06:03:00;1.50;68.30
15879;DHT22;61999;51.514;14.614;2023-02-14T06:05:29;1.50;68.40
15879;DHT22;61999;51.514;14.614;2023-02-14T06:07:57;1.50;68.50
15879;DHT22;61999;51.514;14.614;2023-02-14T06:10:26;1.50;68.60
15879;DHT22;61999;51.514;14.614;2023-02-14T06:12:55;1.60;68.70
15879;DHT22;61999;51.514;14.614;2023-02-14T06:15:24;1.50;68.60
15879;DHT22;61999;51.514;14.614;2023-02-14T06:17:53;1.60;68.70
15879;DHT22;61999;51.514;14.614;2023-02-14T06:20:23;1.60;68.60
15879;DHT22;61999;51.514;14.614;2023-02-14T06:22:52;1.60;68.60
15879;DHT22;61999;51.514;14.614;2023-02-14T06:25:21;1.70;68.50
15879;DHT22;61999;51.514;14.614;2023-02-14T06:27:50;1.70;68.30
15879;DHT22;61999;51.514;14.614;2023-02-14T06:30:20;1.60;68.20
15879;DHT22;61999;51.514;14.614;2023-02-14T06:32:48;1.60;68.30
15879;DHT22;61999;51.514;14.614;2023-02-14T06:35:16;1.60;68.40
15879;DHT22;61999;51.514;14.614;2023-02-14T06:37:45;1.60;68.40
15879;DHT22;61999;51.514;14.614;2023-02-14T06:40:13;1.50;66.80
15879;DHT22;61999;51.514;14.614;2023-02-14T06:42:41;1.50;66.70
15879;DHT22;61999;51.514;14.614;2023-02-14T06:45:11;1.50;67.60
15879;DHT22;61999;51.514;14.614;2023-02-14T06:47:40;1.50;67.80
15879;DHT22;61999;51.514;14.614;2023-02-14T06:50:08;1.50;68.00
15879;DHT22;61999;51.514;14.614;2023-02-14T06:52:38;1.50;68.20
15879;DHT22;61999;51.514;14.614;2023-02-14T06:55:07;1.50;68.30
15879;DHT22;61999;51.514;14.614;2023-02-14T06:57:37;1.50;68.50
15879;DHT22;61999;51.514;14.614;2023-02-14T07:00:06;1.50;68.50
15879;DHT22;61999;51.514;14.614;2023-02-14T07:02:36;1.60;68.50
15879;DHT22;61999;51.514;14.614;2023-02-14T07:05:06;1.50;68.20
15879;DHT22;61999;51.514;14.614;2023-02-14T07:07:35;1.60;68.50
15879;DHT22;61999;51.514;14.614;2023-02-14T07:10:03;1.60;68.50
15879;DHT22;61999;51.514;14.614;2023-02-14T07:12:32;1.60;68.60
15879;DHT22;61999;51.514;14.614;2023-02-14T07:15:00;1.60;68.70
15879;DHT22;61999;51.514;14.614;2023-02-14T07:17:28;1.60;68.70
15879;DHT22;61999;51.514;14.614;2023-02-14T07:19:56;1.60;68.70
15879;DHT22;61999;51.514;14.614;2023-02-14T07:22:25;1.70;68.80
15879;DHT22;61999;51.514;14.614;2023-02-14T07:24:55;1.70;68.80
15879;DHT22;61999;51.514;14.614;2023-02-14T07:27:23;1.80;68.80
15879;DHT22;61999;51.514;14.614;2023-02-14T07:29:51;1.80;68.50
15879;DHT22;61999;51.514;14.614;2023-02-14T07:32:19;1.90;68.30
15879;DHT22;61999;51.514;14.614;2023-02-14T07:34:49;1.80;68.30
15879;DHT22;61999;51.514;14.614;2023-02-14T07:37:17;1.80;68.40
15879;DHT22;61999;51.514;14.614;2023-02-14T07:39:46;1.80;68.50
15879;DHT22;61999;51.514;14.614;2023-02-14T07:42:14;1.80;68.60
15879;DHT22;61999;51.514;14.614;2023-02-14T07:44:43;1.90;68.70
15879;DHT22;61999;51.514;14.614;2023-02-14T07:47:12;1.90;68.70
15879;DHT22;61999;51.514;14.614;2023-02-14T07:49:39;1.90;68.70
15879;DHT22;61999;51.514;14.614;2023-02-14T07:52:08;1.90;68.70
15879;DHT22;61999;51.514;14.614;2023-02-14T07:54:36;1.90;67.60
15879;DHT22;61999;51.514;14.614;2023-02-14T07:57:06;1.90;66.70
15879;DHT22;61999;51.514;14.614;2023-02-14T07:59:34;1.80;66.60
15879;DHT22;61999;51.514;14.614;2023-02-14T08:02:02;1.80;66.30
15879;DHT22;61999;51.514;14.614;2023-02-14T08:04:30;1.80;67.00
15879;DHT22;61999;51.514;14.614;2023-02-14T08:06:59;1.80;67.50
15879;DHT22;61999;51.514;14.614;2023-02-14T08:09:27;1.80;67.30
15879;DHT22;61999;51.514;14.614;2023-02-14T08:11:57;1.80;67.30
15879;DHT22;61999;51.514;14.614;2023-02-14T08:14:44;1.90;66.70
15879;DHT22;61999;51.514;14.614;2023-02-14T08:17:12;1.80;64.70
15879;DHT22;61999;51.514;14.614;2023-02-14T08:19:40;1.80;65.50
15879;DHT22;61999;51.514;14.614;2023-02-14T08:22:08;1.80;66.00
15879;DHT22;61999;51.514;14.614;2023-02-14T08:24:36;1.70;64.50
15879;DHT22;61999;51.514;14.614;2023-02-14T08:27:04;1.70;64.90
15879;DHT22;61999;51.514;14.614;2023-02-14T08:29:32;1.60;65.30
15879;DHT22;61999;51.514;14.614;2023-02-14T08:32:01;1.50;64.10
15879;DHT22;61999;51.514;14.614;2023-02-14T08:34:29;1.60;65.90
15879;DHT22;61999;51.514;14.614;2023-02-14T08:36:57;1.60;66.50
15879;DHT22;61999;51.514;14.614;2023-02-14T08:39:25;1.70;66.40
15879;DHT22;61999;51.514;14.614;2023-02-14T08:41:53;1.70;67.00
15879;DHT22;61999;51.514;14.614;2023-02-14T08:44:21;1.70;65.80
15879;DHT22;61999;51.514;14.614;2023-02-14T08:46:49;1.70;66.10
15879;DHT22;61999;51.514;14.614;2023-02-14T08:49:19;1.80;66.10
15879;DHT22;61999;51.514;14.614;2023-02-14T08:51:47;1.80;65.30
15879;DHT22;61999;51.514;14.614;2023-02-14T08:54:15;1.80;65.60
15879;DHT22;61999;51.514;14.614;2023-02-14T08:56:43;1.80;65.90
15879;DHT22;61999;51.514;14.614;2023-02-14T08:59:11;1.70;64.20
15879;DHT22;61999;51.514;14.614;2023-02-14T09:01:39;1.70;64.50
15879;DHT22;61999;51.514;14.614;2023-02-14T09:04:08;1.70;65.20
15879;DHT22;61999;51.514;14.614;2023-02-14T09:06:38;1.80;66.20
15879;DHT22;61999;51.514;14.614;2023-02-14T09:09:06;1.80;63.80
15879;DHT22;61999;51.514;14.614;2023-02-14T09:11:34;1.80;64.30
15879;DHT22;61999;51.514;14.614;2023-02-14T09:14:02;1.70;63.60
15879;DHT22;61999;51.514;14.614;2023-02-14T09:16:30;1.70;63.70
15879;DHT22;61999;51.514;14.614;2023-02-14T09:18:58;1.70;63.60
15879;DHT22;61999;51.514;14.614;2023-02-14T09:21:27;1.70;64.00
15879;DHT22;61999;51.514;14.614;2023-02-14T09:23:57;1.60;64.10
15879;DHT22;61999;51.514;14.614;2023-02-14T09:26:25;1.60;64.50
15879;DHT22;61999;51.514;14.614;2023-02-14T09:28:55;1.60;64.40
15879;DHT22;61999;51.514;14.614;2023-02-14T09:31:24;1.60;63.90
15879;DHT22;61999;51.514;14.614;2023-02-14T09:33:52;1.60;65.10
15879;DHT22;61999;51.514;14.614;2023-02-14T09:36:20;1.70;64.60
15879;DHT22;61999;51.514;14.614;2023-02-14T09:39:07;1.60;63.30
15879;DHT22;61999;51.514;14.614;2023-02-14T09:41:54;1.60;63.70
15879;DHT22;61999;51.514;14.614;2023-02-14T09:44:33;1.70;64.30
15879;DHT22;61999;51.514;14.614;2023-02-14T09:47:18;1.70;63.60
15879;DHT22;61999;51.514;14.614;2023-02-14T09:49:49;1.80;64.50
15879;DHT22;61999;51.514;14.614;2023-02-14T09:52:21;1.70;63.40
15879;DHT22;61999;51.514;14.614;2023-02-14T09:54:57;1.80;64.50
15879;DHT22;61999;51.514;14.614;2023-02-14T09:57:35;1.90;64.30
15879;DHT22;61999;51.514;14.614;2023-02-14T10:00:17;1.90;64.20
15879;DHT22;61999;51.514;14.614;2023-02-14T10:02:57;2.00;64.60
15879;DHT22;61999;51.514;14.614;2023-02-14T10:05:34;2.10;65.60
15879;DHT22;61999;51.514;14.614;2023-02-14T10:08:16;2.20;65.90
15879;DHT22;61999;51.514;14.614;2023-02-14T10:11:01;2.30;66.20
15879;DHT22;61999;51.514;14.614;2023-02-14T10:13:37;2.50;66.30
15879;DHT22;61999;51.514;14.614;2023-02-14T10:16:15;2.60;66.30
15879;DHT22;61999;51.514;14.614;2023-02-14T10:18:55;2.70;66.30
15879;DHT22;61999;51.514;14.614;2023-02-14T10:21:32;2.70;66.20
15879;DHT22;61999;51.514;14.614;2023-02-14T10:24:13;2.80;64.50
15879;DHT22;61999;51.514;14.614;2023-02-14T10:26:48;2.90;65.00
15879;DHT22;61999;51.514;14.614;2023-02-14T10:29:18;2.90;64.20
15879;DHT22;61999;51.514;14.614;2023-02-14T10:31:50;3.00;64.80
15879;DHT22;61999;51.514;14.614;2023-02-14T10:34:28;3.10;65.20
15879;DHT22;61999;51.514;14.614;2023-02-14T10:37:15;3.10;65.30
15879;DHT22;61999;51.514;14.614;2023-02-14T10:40:03;3.20;65.20
15879;DHT22;61999;51.514;14.614;2023-02-14T10:42:52;3.20;65.20
15879;DHT22;61999;51.514;14.614;2023-02-14T10:45:31;3.30;65.10
15879;DHT22;61999;51.514;14.614;2023-02-14T10:48:15;3.40;65.10
15879;DHT22;61999;51.514;14.614;2023-02-14T10:50:55;3.40;65.00
15879;DHT22;61999;51.514;14.614;2023-02-14T10:53:37;3.50;65.00
15879;DHT22;61999;51.514;14.614;2023-02-14T10:56:14;3.50;64.70
15879;DHT22;61999;51.514;14.614;2023-02-14T10:58:50;3.60;62.10
15879;DHT22;61999;51.514;14.614;2023-02-14T11:01:22;3.50;61.90
15879;DHT22;61999;51.514;14.614;2023-02-14T11:03:53;3.60;63.50
15879;DHT22;61999;51.514;14.614;2023-02-14T11:06:29;3.60;63.60
15879;DHT22;61999;51.514;14.614;2023-02-14T11:08:57;3.60;59.00
15879;DHT22;61999;51.514;14.614;2023-02-14T11:11:29;3.50;61.50
15879;DHT22;61999;51.514;14.614;2023-02-14T11:14:18;3.60;62.40
15879;DHT22;61999;51.514;14.614;2023-02-14T11:16:48;3.60;62.00
15879;DHT22;61999;51.514;14.614;2023-02-14T11:19:21;3.60;62.60
15879;DHT22;61999;51.514;14.614;2023-02-14T11:21:51;3.60;62.90
15879;DHT22;61999;51.514;14.614;2023-02-14T11:24:27;3.70;63.10
15879;DHT22;61999;51.514;14.614;2023-02-14T11:26:59;3.70;63.20
15879;DHT22;61999;51.514;14.614;2023-02-14T11:29:34;3.80;63.20
15879;DHT22;61999;51.514;14.614;2023-02-14T11:32:11;3.80;62.50
15879;DHT22;61999;51.514;14.614;2023-02-14T11:34:45;3.80;62.60
15879;DHT22;61999;51.514;14.614;2023-02-14T11:37:27;3.90;62.80
15879;DHT22;61999;51.514;14.614;2023-02-14T11:39:58;3.90;63.00
15879;DHT22;61999;51.514;14.614;2023-02-14T11:42:39;4.00;62.40
15879;DHT22;61999;51.514;14.614;2023-02-14T11:45:27;4.00;62.70
15879;DHT22;61999;51.514;14.614;2023-02-14T11:48:08;4.10;62.60
15879;DHT22;61999;51.514;14.614;2023-02-14T11:50:54;4.10;62.50
15879;DHT22;61999;51.514;14.614;2023-02-14T11:53:26;4.10;57.50
15879;DHT22;61999;51.514;14.614;2023-02-14T11:55:57;4.00;57.50
15879;DHT22;61999;51.514;14.614;2023-02-14T11:58:31;3.90;55.00
15879;DHT22;61999;51.514;14.614;2023-02-14T12:01:04;3.70;54.60
15879;DHT22;61999;51.514;14.614;2023-02-14T12:03:38;3.70;57.00
15879;DHT22;61999;51.514;14.614;2023-02-14T12:06:12;3.70;58.40
15879;DHT22;61999;51.514;14.614;2023-02-14T12:08:51;3.70;59.10
15879;DHT22;61999;51.514;14.614;2023-02-14T12:11:37;3.60;55.30
15879;DHT22;61999;51.514;14.614;2023-02-14T12:14:19;3.50;56.50
15879;DHT22;61999;51.514;14.614;2023-02-14T12:16:54;3.60;57.60
15879;DHT22;61999;51.514;14.614;2023-02-14T12:19:32;3.60;58.90
15879;DHT22;61999;51.514;14.614;2023-02-14T12:22:12;3.70;59.70
15879;DHT22;61999;51.514;14.614;2023-02-14T12:24:48;3.60;56.00
15879;DHT22;61999;51.514;14.614;2023-02-14T12:27:25;3.70;57.70
15879;DHT22;61999;51.514;14.614;2023-02-14T12:30:02;3.70;56.00
15879;DHT22;61999;51.514;14.614;2023-02-14T12:32:45;3.60;55.10
15879;DHT22;61999;51.514;14.614;2023-02-14T12:35:16;3.50;54.90
15879;DHT22;61999;51.514;14.614;2023-02-14T12:38:00;3.40;54.90
15879;DHT22;61999;51.514;14.614;2023-02-14T12:40:41;3.40;57.30
15879;DHT22;61999;51.514;14.614;2023-02-14T12:43:33;3.40;55.40
15879;DHT22;61999;51.514;14.614;2023-02-14T12:46:21;3.30;56.40
15879;DHT22;61999;51.514;14.614;2023-02-14T12:49:20;3.40;58.30
15879;DHT22;61999;51.514;14.614;2023-02-14T12:52:22;3.50;58.90
15879;DHT22;61999;51.514;14.614;2023-02-14T12:58:15;3.60;58.10
15879;DHT22;61999;51.514;14.614;2023-02-14T13:00:59;3.70;59.10
15879;DHT22;61999;51.514;14.614;2023-02-14T13:06:46;3.60;55.70
15879;DHT22;61999;51.514;14.614;2023-02-14T13:09:28;3.70;58.20
15879;DHT22;61999;51.514;14.614;2023-02-14T13:12:13;3.60;55.70
15879;DHT22;61999;51.514;14.614;2023-02-14T13:14:56;3.40;55.40
15879;DHT22;61999;51.514;14.614;2023-02-14T13:17:37;3.50;57.60
15879;DHT22;61999;51.514;14.614;2023-02-14T13:20:30;3.60;58.40
15879;DHT22;61999;51.514;14.614;2023-02-14T13:23:11;3.60;58.60
15879;DHT22;61999;51.514;14.614;2023-02-14T13:25:45;3.50;54.70
15879;DHT22;61999;51.514;14.614;2023-02-14T13:28:18;3.50;56.50
15879;DHT22;61999;51.514;14.614;2023-02-14T13:30:47;3.60;57.30
15879;DHT22;61999;51.514;14.614;2023-02-14T13:33:27;3.50;54.90
15879;DHT22;61999;51.514;14.614;2023-02-14T13:36:05;3.30;56.50
15879;DHT22;61999;51.514;14.614;2023-02-14T13:38:39;3.30;55.50
15879;DHT22;61999;51.514;14.614;2023-02-14T13:41:12;3.40;57.30
15879;DHT22;61999;51.514;14.614;2023-02-14T13:43:46;3.50;58.20
15879;DHT22;61999;51.514;14.614;2023-02-14T13:46:18;3.50;58.40
15879;DHT22;61999;51.514;14.614;2023-02-14T13:48:59;3.60;56.40
15879;DHT22;61999;51.514;14.614;2023-02-14T13:51:45;3.50;55.60
15879;DHT22;61999;51.514;14.614;2023-02-14T13:54:29;3.50;56.60
15879;DHT22;61999;51.514;14.614;2023-02-14T13:57:02;3.50;56.50
15879;DHT22;61999;51.514;14.614;2023-02-14T14:00:20;3.50;57.40
15879;DHT22;61999;51.514;14.614;2023-02-14T14:03:06;3.60;58.00
15879;DHT22;61999;51.514;14.614;2023-02-14T14:06:02;3.70;58.60
15879;DHT22;61999;51.514;14.614;2023-02-14T14:08:39;3.70;58.60
15879;DHT22;61999;51.514;14.614;2023-02-14T14:14:33;3.90;57.80
15879;DHT22;61999;51.514;14.614;2023-02-14T14:17:21;3.80;55.70
15879;DHT22;61999;51.514;14.614;2023-02-14T14:19:53;3.80;57.00
15879;DHT22;61999;51.514;14.614;2023-02-14T14:22:24;3.70;55.20
15879;DHT22;61999;51.514;14.614;2023-02-14T14:25:01;3.60;55.20
15879;DHT22;61999;51.514;14.614;2023-02-14T14:27:33;3.50;56.20
15879;DHT22;61999;51.514;14.614;2023-02-14T14:30:15;3.70;56.00
15879;DHT22;61999;51.514;14.614;2023-02-14T14:33:11;3.60;55.00
15879;DHT22;61999;51.514;14.614;2023-02-14T14:35:51;3.60;55.90
15879;DHT22;61999;51.514;14.614;2023-02-14T14:38:20;3.70;55.30
15879;DHT22;61999;51.514;14.614;2023-02-14T14:40:50;3.70;55.70
15879;DHT22;61999;51.514;14.614;2023-02-14T14:43:24;3.70;55.90
15879;DHT22;61999;51.514;14.614;2023-02-14T14:45:56;3.50;55.00
15879;DHT22;61999;51.514;14.614;2023-02-14T14:48:30;3.40;54.70
15879;DHT22;61999;51.514;14.614;2023-02-14T14:51:03;3.20;54.80
15879;DHT22;61999;51.514;14.614;2023-02-14T14:53:39;3.30;56.20
15879;DHT22;61999;51.514;14.614;2023-02-14T14:56:17;3.30;55.90
15879;DHT22;61999;51.514;14.614;2023-02-14T14:58:48;3.30;56.10
15879;DHT22;61999;51.514;14.614;2023-02-14T15:01:28;3.50;55.30
15879;DHT22;61999;51.514;14.614;2023-02-14T15:04:10;3.60;54.90
15879;DHT22;61999;51.514;14.614;2023-02-14T15:06:43;3.60;55.30
15879;DHT22;61999;51.514;14.614;2023-02-14T15:09:13;3.50;55.00
15879;DHT22;61999;51.514;14.614;2023-02-14T15:11:45;3.40;55.50
15879;DHT22;61999;51.514;14.614;2023-02-14T15:14:34;3.40;55.50
15879;DHT22;61999;51.514;14.614;2023-02-14T15:17:11;3.80;54.40
15879;DHT22;61999;51.514;14.614;2023-02-14T15:19:47;3.70;54.70
15879;DHT22;61999;51.514;14.614;2023-02-14T15:22:22;3.60;54.60
15879;DHT22;61999;51.514;14.614;2023-02-14T15:24:52;3.50;55.00
15879;DHT22;61999;51.514;14.614;2023-02-14T15:27:23;3.70;54.70
15879;DHT22;61999;51.514;14.614;2023-02-14T15:29:54;3.70;54.70
15879;DHT22;61999;51.514;14.614;2023-02-14T15:32:24;3.40;55.00
15879;DHT22;61999;51.514;14.614;2023-02-14T15:34:55;3.20;55.60
15879;DHT22;61999;51.514;14.614;2023-02-14T15:37:24;3.10;55.70
15879;DHT22;61999;51.514;14.614;2023-02-14T15:39:54;3.10;56.20
15879;DHT22;61999;51.514;14.614;2023-02-14T15:42:26;3.20;56.00
15879;DHT22;61999;51.514;14.614;2023-02-14T15:45:13;3.10;55.70
15879;DHT22;61999;51.514;14.614;2023-02-14T15:47:44;2.90;56.10
15879;DHT22;61999;51.514;14.614;2023-02-14T15:50:18;2.60;56.20
15879;DHT22;61999;51.514;14.614;2023-02-14T15:52:51;2.40;56.90
15879;DHT22;61999;51.514;14.614;2023-02-14T15:55:24;2.30;57.00
15879;DHT22;61999;51.514;14.614;2023-02-14T15:57:57;2.20;57.40
15879;DHT22;61999;51.514;14.614;2023-02-14T16:00:28;2.20;57.70
15879;DHT22;61999;51.514;14.614;2023-02-14T16:03:01;2.10;57.90
15879;DHT22;61999;51.514;14.614;2023-02-14T16:05:31;2.10;58.10
15879;DHT22;61999;51.514;14.614;2023-02-14T16:08:01;2.10;57.90
15879;DHT22;61999;51.514;14.614;2023-02-14T16:10:31;2.10;58.10
15879;DHT22;61999;51.514;14.614;2023-02-14T16:13:04;2.10;58.30
15879;DHT22;61999;51.514;14.614;2023-02-14T16:15:36;2.20;58.40
15879;DHT22;61999;51.514;14.614;2023-02-14T16:18:17;2.20;58.40
15879;DHT22;61999;51.514;14.614;2023-02-14T16:21:13;2.20;58.00
15879;DHT22;61999;51.514;14.614;2023-02-14T16:23:44;2.10;58.10
15879;DHT22;61999;51.514;14.614;2023-02-14T16:26:14;2.10;58.30
15879;DHT22;61999;51.514;14.614;2023-02-14T16:28:43;2.10;58.50
15879;DHT22;61999;51.514;14.614;2023-02-14T16:31:14;2.00;58.30
15879;DHT22;61999;51.514;14.614;2023-02-14T16:33:43;2.00;58.80
15879;DHT22;61999;51.514;14.614;2023-02-14T16:36:16;1.90;58.40